createdAt,value
2022-08-21T00:00:44.446Z,95.32
2022-08-21T00:01:43.136Z,95.12
2022-08-21T00:02:43.035Z,95.02
2022-08-21T00:03:42.843Z,95.12
2022-08-21T00:04:48.266Z,95.32
2022-08-21T00:05:42.960Z,95.63
2022-08-21T00:06:42.893Z,95.63
2022-08-21T00:07:43.130Z,95.63
2022-08-21T00:08:42.858Z,95.93
2022-08-21T00:09:43.053Z,96.13
2022-08-21T00:10:42.801Z,96.13
2022-08-21T00:11:42.789Z,96.13
2022-08-21T00:12:42.983Z,96.34
2022-08-21T00:13:42.905Z,96.23
2022-08-21T00:14:43.092Z,96.34
2022-08-21T00:15:43.099Z,96.34
2022-08-21T00:16:43.244Z,96.44
2022-08-21T00:17:42.766Z,96.54
2022-08-21T00:18:43.365Z,96.54
2022-08-21T00:19:42.868Z,96.84
2022-08-21T00:20:42.743Z,96.84
2022-08-21T00:21:44.272Z,96.74
2022-08-21T00:22:42.929Z,96.54
2022-08-21T00:23:43.460Z,96.44
2022-08-21T00:24:43.030Z,96.44
2022-08-21T00:25:43.429Z,96.44
2022-08-21T00:26:42.783Z,96.54
2022-08-21T00:27:42.811Z,96.44
2022-08-21T00:28:42.618Z,96.34
2022-08-21T00:29:43.118Z,96.13
2022-08-21T00:30:42.933Z,96.23
2022-08-21T00:31:43.033Z,96.44
2022-08-21T00:32:42.935Z,96.34
2022-08-21T00:33:42.733Z,96.13
2022-08-21T00:34:42.865Z,95.93
2022-08-21T00:35:42.839Z,95.83
2022-08-21T00:36:42.660Z,95.83
2022-08-21T00:37:42.863Z,95.83
2022-08-21T00:38:42.531Z,95.93
2022-08-21T00:39:42.843Z,95.83
2022-08-21T00:40:42.850Z,95.78
2022-08-21T00:41:43.048Z,95.67
2022-08-21T00:42:42.780Z,95.57
2022-08-21T00:43:42.669Z,95.78
2022-08-21T00:44:42.519Z,95.78
2022-08-21T00:45:42.592Z,95.67
2022-08-21T00:46:43.042Z,95.57
2022-08-21T00:47:43.170Z,95.78
2022-08-21T00:48:42.411Z,96.08
2022-08-21T00:49:42.472Z,95.98
2022-08-21T00:50:43.404Z,96.02
2022-08-21T00:51:43.093Z,96.12
2022-08-21T00:52:42.559Z,96.12
2022-08-21T00:53:42.592Z,96.02
2022-08-21T00:54:45.847Z,95.82
2022-08-21T00:55:42.556Z,95.82
2022-08-21T00:56:42.320Z,95.92
2022-08-21T00:57:42.308Z,95.86
2022-08-21T00:58:42.257Z,95.76
2022-08-21T00:59:42.261Z,95.76
2022-08-21T01:00:42.367Z,95.97
2022-08-21T01:01:42.322Z,96.17
2022-08-21T01:02:42.713Z,96.37
2022-08-21T01:03:44.122Z,96.57
2022-08-21T01:04:42.235Z,96.78
2022-08-21T01:05:42.214Z,97.02
2022-08-21T01:06:42.330Z,97.13
2022-08-21T01:07:42.221Z,97.02
2022-08-21T01:08:46.640Z,96.92
2022-08-21T01:09:42.206Z,96.92
2022-08-21T01:10:42.174Z,97.13
2022-08-21T01:11:42.211Z,97.23
2022-08-21T01:12:42.134Z,97.33
2022-08-21T01:13:42.123Z,97.33
2022-08-21T01:14:42.100Z,97.33
2022-08-21T01:15:42.075Z,97.38
2022-08-21T01:16:42.122Z,97.27
2022-08-21T01:17:42.037Z,97.27
2022-08-21T01:18:42.413Z,97.17
2022-08-21T01:19:42.060Z,97.07
2022-08-21T01:20:42.034Z,96.97
2022-08-21T01:21:42.248Z,96.97
2022-08-21T01:22:42.155Z,96.97
2022-08-21T01:23:42.050Z,97.27
2022-08-21T01:24:42.109Z,97.72
2022-08-21T01:25:42.015Z,97.83
2022-08-21T01:26:42.113Z,97.72
2022-08-21T01:27:42.162Z,97.72
2022-08-21T01:28:42.175Z,97.72
2022-08-21T01:29:42.422Z,97.72
2022-08-21T01:30:42.003Z,97.72
2022-08-21T01:31:41.966Z,97.62
2022-08-21T01:32:41.952Z,97.72
2022-08-21T01:33:41.903Z,98.03
2022-08-21T01:34:41.915Z,98.13
2022-08-21T01:35:42.121Z,98.13
2022-08-21T01:36:42.110Z,98.33
2022-08-21T01:37:42.269Z,98.43
2022-08-21T01:38:42.307Z,98.54
2022-08-21T01:39:41.944Z,98.38
2022-08-21T01:40:41.953Z,98.18
2022-08-21T01:41:41.832Z,98.18
2022-08-21T01:42:42.040Z,98.38
2022-08-21T01:43:41.829Z,98.58
2022-08-21T01:44:41.816Z,98.79
2022-08-21T01:45:41.772Z,98.79
2022-08-21T01:46:41.900Z,98.58
2022-08-21T01:47:41.761Z,98.63
2022-08-21T01:48:41.754Z,98.83
2022-08-21T01:49:41.753Z,98.93
2022-08-21T01:50:41.736Z,98.93
2022-08-21T01:51:41.713Z,98.63
2022-08-21T01:52:41.752Z,98.52
2022-08-21T01:53:41.701Z,98.63
2022-08-21T01:54:41.703Z,98.52
2022-08-21T01:55:41.786Z,98.43
2022-08-21T01:56:41.829Z,98.32
2022-08-21T01:57:41.789Z,98.43
2022-08-21T01:58:41.750Z,98.73
2022-08-21T01:59:41.779Z,98.63
2022-08-21T02:00:41.709Z,98.43
2022-08-21T02:01:42.806Z,98.63
2022-08-21T02:02:42.193Z,98.63
2022-08-21T02:03:41.628Z,98.93
2022-08-21T02:04:41.659Z,99.04
2022-08-21T02:05:41.599Z,99.28
2022-08-21T02:06:41.577Z,99.33
2022-08-21T02:07:41.578Z,99.28
2022-08-21T02:08:41.670Z,99.08
2022-08-21T02:09:42.029Z,98.97
2022-08-21T02:10:41.552Z,99.18
2022-08-21T02:11:41.526Z,99.18
2022-08-21T02:12:41.577Z,99.08
2022-08-21T02:13:41.751Z,99.08
2022-08-21T02:14:41.537Z,99.08
2022-08-21T02:15:41.713Z,99.18
2022-08-21T02:16:41.740Z,99.08
2022-08-21T02:17:41.842Z,99.08
2022-08-21T02:18:42.509Z,99.28
2022-08-21T02:19:41.856Z,99.38
2022-08-21T02:20:41.627Z,99.38
2022-08-21T02:21:41.458Z,99.49
2022-08-21T02:22:41.694Z,99.58
2022-08-21T02:23:41.754Z,99.69
2022-08-21T02:24:53.945Z,99.69
2022-08-21T02:25:41.410Z,99.58
2022-08-21T02:26:41.350Z,99.58
2022-08-21T02:27:41.341Z,99.63
2022-08-21T02:28:41.425Z,99.53
2022-08-21T02:29:42.099Z,99.43
2022-08-21T02:30:41.413Z,99.53
2022-08-21T02:31:41.391Z,99.74
2022-08-21T02:32:41.286Z,99.74
2022-08-21T02:33:41.539Z,99.74
2022-08-21T02:34:41.274Z,99.74
2022-08-21T02:35:41.296Z,99.74
2022-08-21T02:36:41.274Z,99.74
2022-08-21T02:37:41.418Z,99.63
2022-08-21T02:38:41.583Z,99.74
2022-08-21T02:39:41.356Z,99.84
2022-08-21T02:40:47.781Z,99.94
2022-08-21T02:41:41.311Z,99.94
2022-08-21T02:42:41.283Z,99.99
2022-08-21T02:43:41.411Z,99.99
2022-08-21T02:44:41.416Z,99.99
2022-08-21T02:45:41.408Z,99.99
2022-08-21T02:46:41.533Z,99.99
2022-08-21T02:47:41.217Z,99.94
2022-08-21T02:48:41.583Z,99.94
2022-08-21T02:49:41.606Z,99.84
2022-08-21T02:50:41.327Z,99.84
2022-08-21T02:51:41.327Z,99.84
2022-08-21T02:52:41.309Z,99.99
2022-08-21T02:53:41.714Z,99.99
2022-08-21T02:54:41.239Z,99.99
2022-08-21T02:55:41.271Z,99.99
2022-08-21T02:56:41.122Z,99.99
2022-08-21T02:57:41.070Z,99.99
2022-08-21T02:58:41.190Z,99.99
2022-08-21T02:59:41.134Z,99.99
2022-08-21T03:00:41.059Z,99.99
2022-08-21T03:01:41.125Z,99.99
2022-08-21T03:02:41.220Z,99.99
2022-08-21T03:03:40.997Z,99.99
2022-08-21T03:04:45.982Z,99.99
2022-08-21T03:05:40.994Z,99.99
2022-08-21T03:06:41.348Z,99.99
2022-08-21T03:07:40.996Z,99.99
2022-08-21T03:08:41.288Z,99.99
2022-08-21T03:09:55.128Z,99.99
2022-08-21T03:10:41.102Z,99.99
2022-08-21T03:11:40.947Z,99.99
2022-08-21T03:12:41.070Z,99.99
2022-08-21T03:13:41.051Z,99.99
2022-08-21T03:14:41.122Z,99.99
2022-08-21T03:15:41.225Z,99.99
2022-08-21T03:16:41.043Z,99.99
2022-08-21T03:17:40.872Z,99.99
2022-08-21T03:18:40.902Z,99.99
2022-08-21T03:19:41.112Z,99.99
2022-08-21T03:20:41.504Z,99.99
2022-08-21T03:21:40.964Z,99.99
2022-08-21T03:22:41.041Z,99.99
2022-08-21T03:23:40.857Z,99.99
2022-08-21T03:24:42.936Z,99.99
2022-08-21T03:25:41.237Z,99.99
2022-08-21T03:26:41.009Z,99.99
2022-08-21T03:27:40.787Z,99.99
2022-08-21T03:28:41.087Z,99.99
2022-08-21T03:29:41.246Z,99.99
2022-08-21T03:30:40.914Z,99.99
2022-08-21T03:31:40.743Z,99.99
2022-08-21T03:32:40.918Z,99.99
2022-08-21T03:33:41.137Z,99.99
2022-08-21T03:34:40.996Z,99.99
2022-08-21T03:35:40.758Z,99.99
2022-08-21T03:36:40.961Z,99.99
2022-08-21T03:37:41.175Z,99.99
2022-08-21T03:38:40.806Z,99.99
2022-08-21T03:39:41.052Z,99.99
2022-08-21T03:40:40.628Z,99.99
2022-08-21T03:41:40.823Z,99.99
2022-08-21T03:42:40.605Z,99.99
2022-08-21T03:43:40.644Z,99.99
2022-08-21T03:44:40.787Z,99.99
2022-08-21T03:45:40.848Z,99.99
2022-08-21T03:46:41.131Z,99.99
2022-08-21T03:47:40.631Z,99.99
2022-08-21T03:48:40.547Z,99.99
2022-08-21T03:49:41.011Z,99.99
2022-08-21T03:50:41.486Z,99.99
2022-08-21T03:51:40.521Z,99.99
2022-08-21T03:52:40.594Z,99.99
2022-08-21T03:53:40.502Z,99.99
2022-08-21T03:54:41.123Z,99.99
2022-08-21T03:55:40.714Z,99.99
2022-08-21T03:56:40.513Z,99.99
2022-08-21T03:57:40.592Z,99.99
2022-08-21T03:58:40.490Z,99.99
2022-08-21T03:59:40.501Z,99.99
2022-08-21T04:00:40.702Z,99.99
2022-08-21T04:01:40.620Z,99.99
2022-08-21T04:02:40.430Z,99.99
2022-08-21T04:03:40.600Z,99.99
2022-08-21T04:04:40.549Z,99.99
2022-08-21T04:05:40.414Z,99.99
2022-08-21T04:06:40.402Z,99.99
2022-08-21T04:07:40.470Z,99.99
2022-08-21T04:08:40.411Z,99.99
2022-08-21T04:09:40.545Z,99.99
2022-08-21T04:10:40.586Z,99.99
2022-08-21T04:11:40.861Z,99.99
2022-08-21T04:12:40.361Z,99.99
2022-08-21T04:13:44.672Z,99.99
2022-08-21T04:14:40.308Z,99.99
2022-08-21T04:15:40.313Z,99.99
2022-08-21T04:16:40.314Z,99.99
2022-08-21T04:17:40.290Z,99.99
2022-08-21T04:18:40.228Z,99.99
2022-08-21T04:19:40.473Z,99.99
2022-08-21T04:20:40.221Z,99.99
2022-08-21T04:21:40.388Z,99.99
2022-08-21T04:22:40.272Z,99.99
2022-08-21T04:23:40.332Z,99.99
2022-08-21T04:24:40.232Z,99.99
2022-08-21T04:25:40.238Z,99.99
2022-08-21T04:26:40.388Z,99.99
2022-08-21T04:27:41.255Z,99.99
2022-08-21T04:28:40.348Z,99.99
2022-08-21T04:29:40.332Z,99.99
2022-08-21T04:30:40.294Z,99.99
2022-08-21T04:31:40.220Z,99.99
2022-08-21T04:32:40.260Z,99.99
2022-08-21T04:33:40.391Z,99.99
2022-08-21T04:34:40.136Z,99.99
2022-08-21T04:35:40.236Z,99.99
2022-08-21T04:36:40.346Z,99.99
2022-08-21T04:37:42.287Z,99.99
2022-08-21T04:38:44.547Z,99.99
2022-08-21T04:39:40.169Z,99.99
2022-08-21T04:40:40.064Z,99.99
2022-08-21T04:41:40.197Z,99.99
2022-08-21T04:42:40.027Z,99.99
2022-08-21T04:43:40.069Z,99.99
2022-08-21T04:44:40.050Z,99.99
2022-08-21T04:45:40.361Z,99.99
2022-08-21T04:46:40.219Z,99.99
2022-08-21T04:47:44.501Z,99.99
2022-08-21T04:48:40.031Z,99.99
2022-08-21T04:49:40.165Z,99.99
2022-08-21T04:50:40.112Z,99.99
2022-08-21T04:51:40.399Z,99.99
2022-08-21T04:52:39.920Z,99.99
2022-08-21T04:53:40.381Z,99.99
2022-08-21T04:54:40.142Z,99.99
2022-08-21T04:55:40.187Z,99.99
2022-08-21T04:56:40.013Z,99.99
2022-08-21T04:57:48.647Z,99.99
2022-08-21T04:58:39.889Z,99.99
2022-08-21T04:59:40.081Z,99.99
2022-08-21T05:00:40.011Z,99.99
2022-08-21T05:01:40.036Z,99.99
2022-08-21T05:02:39.821Z,99.99
2022-08-21T05:03:39.861Z,99.99
2022-08-21T05:04:39.812Z,99.99
2022-08-21T05:05:40.174Z,99.99
2022-08-21T05:06:40.091Z,99.99
2022-08-21T05:07:42.744Z,99.99
2022-08-21T05:08:39.747Z,99.99
2022-08-21T05:09:39.783Z,99.99
2022-08-21T05:10:39.826Z,99.99
2022-08-21T05:11:39.832Z,99.99
2022-08-21T05:12:39.722Z,99.99
2022-08-21T05:13:39.726Z,99.99
2022-08-21T05:14:39.743Z,99.99
2022-08-21T05:15:39.711Z,99.99
2022-08-21T05:16:39.749Z,99.99
2022-08-21T05:17:39.727Z,99.99
2022-08-21T05:18:39.734Z,99.99
2022-08-21T05:19:39.653Z,99.99
2022-08-21T05:20:39.689Z,99.99
2022-08-21T05:21:39.835Z,99.99
2022-08-21T05:22:39.727Z,99.99
2022-08-21T05:23:39.737Z,99.99
2022-08-21T05:24:39.708Z,99.99
2022-08-21T05:25:39.632Z,99.99
2022-08-21T05:26:45.878Z,99.99
2022-08-21T05:27:39.812Z,99.99
2022-08-21T05:28:39.569Z,99.99
2022-08-21T05:29:39.543Z,99.99
2022-08-21T05:30:39.599Z,99.99
2022-08-21T05:31:39.621Z,99.99
2022-08-21T05:32:39.556Z,99.99
2022-08-21T05:33:39.671Z,99.99
2022-08-21T05:34:39.596Z,99.99
2022-08-21T05:35:39.558Z,99.99
2022-08-21T05:36:39.555Z,99.99
2022-08-21T05:37:39.506Z,99.99
2022-08-21T05:38:39.619Z,99.99
2022-08-21T05:40:20.689Z,99.99
2022-08-21T05:40:39.607Z,99.99
2022-08-21T05:41:39.418Z,99.99
2022-08-21T05:42:39.540Z,99.99
2022-08-21T05:43:39.725Z,99.99
2022-08-21T05:44:39.442Z,99.99
2022-08-21T05:45:42.905Z,99.99
2022-08-21T05:46:39.532Z,99.99
2022-08-21T05:47:39.489Z,99.99
2022-08-21T05:48:39.497Z,99.99
2022-08-21T05:49:39.655Z,99.99
2022-08-21T05:50:39.511Z,99.99
2022-08-21T05:51:39.644Z,99.99
2022-08-21T05:52:39.343Z,99.99
2022-08-21T05:53:39.553Z,99.99
2022-08-21T05:54:39.544Z,99.99
2022-08-21T05:55:44.889Z,99.99
2022-08-21T05:56:39.422Z,99.99
2022-08-21T05:57:39.773Z,99.99
2022-08-21T05:58:39.342Z,99.99
2022-08-21T05:59:39.298Z,99.99
2022-08-21T06:00:39.270Z,99.60
2022-08-21T06:01:39.802Z,99.60
2022-08-21T06:02:39.593Z,99.50
2022-08-21T06:03:39.242Z,98.24
2022-08-21T06:04:39.207Z,97.83
2022-08-21T06:05:39.282Z,97.53
2022-08-21T06:06:39.385Z,97.63
2022-08-21T06:07:39.212Z,97.33
2022-08-21T06:08:39.213Z,96.72
2022-08-21T06:09:39.575Z,96.51
2022-08-21T06:10:39.311Z,96.47
2022-08-21T06:11:39.167Z,95.86
2022-08-21T06:12:39.203Z,96.17
2022-08-21T06:13:39.323Z,96.37
2022-08-21T06:14:39.087Z,96.07
2022-08-21T06:15:39.249Z,95.97
2022-08-21T06:16:39.459Z,95.76
2022-08-21T06:17:39.043Z,94.55
2022-08-21T06:18:39.034Z,94.40
2022-08-21T06:19:39.103Z,94.30
2022-08-21T06:20:39.036Z,93.59
2022-08-21T06:21:39.075Z,94.10
2022-08-21T06:22:39.034Z,93.39
2022-08-21T06:23:39.041Z,92.03
2022-08-21T06:24:39.650Z,92.64
2022-08-21T06:25:39.263Z,92.03
2022-08-21T06:26:39.188Z,92.44
2022-08-21T06:27:39.200Z,92.54
2022-08-21T06:28:39.293Z,93.10
2022-08-21T06:29:44.671Z,91.69
2022-08-21T06:30:39.021Z,92.49
2022-08-21T06:31:38.963Z,91.99
2022-08-21T06:32:39.011Z,91.78
2022-08-21T06:33:38.881Z,90.67
2022-08-21T06:34:39.338Z,91.18
2022-08-21T06:35:41.406Z,91.49
2022-08-21T06:36:39.247Z,90.03
2022-08-21T06:37:38.907Z,90.94
2022-08-21T06:38:38.893Z,90.73
2022-08-21T06:39:43.272Z,90.43
2022-08-21T06:40:38.928Z,90.83
2022-08-21T06:41:39.315Z,90.63
2022-08-21T06:42:38.821Z,91.03
2022-08-21T06:43:39.710Z,89.92
2022-08-21T06:44:38.786Z,90.94
2022-08-21T06:45:38.896Z,90.23
2022-08-21T06:46:38.813Z,90.08
2022-08-21T06:47:38.867Z,89.58
2022-08-21T06:48:38.877Z,90.39
2022-08-21T06:49:38.786Z,90.59
2022-08-21T06:50:38.883Z,89.17
2022-08-21T06:51:38.780Z,89.07
2022-08-21T06:52:38.751Z,88.77
2022-08-21T06:53:39.000Z,89.03
2022-08-21T06:54:38.673Z,88.83
2022-08-21T06:55:38.907Z,88.53
2022-08-21T06:56:38.908Z,88.02
2022-08-21T06:57:38.773Z,86.81
2022-08-21T06:58:39.264Z,86.81
2022-08-21T06:59:38.740Z,87.32
2022-08-21T07:00:38.721Z,87.78
2022-08-21T07:01:39.299Z,88.48
2022-08-21T07:02:41.493Z,88.79
2022-08-21T07:03:38.618Z,86.16
2022-08-21T07:04:38.602Z,86.27
2022-08-21T07:05:38.616Z,86.13
2022-08-21T07:06:38.631Z,85.31
2022-08-21T07:07:39.315Z,85.92
2022-08-21T07:08:38.977Z,86.43
2022-08-21T07:09:38.617Z,86.53
2022-08-21T07:10:38.582Z,84.71
2022-08-21T07:11:44.237Z,83.97
2022-08-21T07:12:38.493Z,84.88
2022-08-21T07:13:38.615Z,84.77
2022-08-21T07:14:38.546Z,86.38
2022-08-21T07:15:38.474Z,85.08
2022-08-21T07:16:38.665Z,85.08
2022-08-21T07:17:38.483Z,84.77
2022-08-21T07:18:38.465Z,85.64
2022-08-21T07:19:38.497Z,85.54
2022-08-21T07:20:38.429Z,85.64
2022-08-21T07:21:38.439Z,84.83
2022-08-21T07:22:38.459Z,84.53
2022-08-21T07:23:38.392Z,84.33
2022-08-21T07:24:38.433Z,82.51
2022-08-21T07:25:38.426Z,84.09
2022-08-21T07:26:38.643Z,84.09
2022-08-21T07:27:38.401Z,81.67
2022-08-21T07:28:38.357Z,81.17
2022-08-21T07:29:38.391Z,82.88
2022-08-21T07:30:38.331Z,83.48
2022-08-21T07:31:38.757Z,81.33
2022-08-21T07:32:38.303Z,82.34
2022-08-21T07:33:38.344Z,81.73
2022-08-21T07:34:38.280Z,80.12
2022-08-21T07:35:38.287Z,79.99
2022-08-21T07:36:38.332Z,80.39
2022-08-21T07:37:38.507Z,81.19
2022-08-21T07:38:38.451Z,80.95
2022-08-21T07:39:38.349Z,80.95
2022-08-21T07:40:38.219Z,81.26
2022-08-21T07:41:38.452Z,80.05
2022-08-21T07:42:38.285Z,78.03
2022-08-21T07:43:38.238Z,75.49
2022-08-21T07:44:38.230Z,77.90
2022-08-21T07:45:38.150Z,78.10
2022-08-21T07:46:38.409Z,79.30
2022-08-21T07:47:42.332Z,79.00
2022-08-21T07:48:38.295Z,77.76
2022-08-21T07:49:38.157Z,78.46
2022-08-21T07:50:38.143Z,76.45
2022-08-21T07:51:38.102Z,75.75
2022-08-21T07:52:38.136Z,75.55
2022-08-21T07:53:38.129Z,74.65
2022-08-21T07:54:38.168Z,75.25
2022-08-21T07:55:38.350Z,76.12
2022-08-21T07:56:38.162Z,76.92
2022-08-21T07:57:38.125Z,76.02
2022-08-21T07:58:38.112Z,73.81
2022-08-21T07:59:38.034Z,74.51
2022-08-21T08:00:38.037Z,75.51
2022-08-21T08:01:38.087Z,74.81
2022-08-21T08:02:38.032Z,75.48
2022-08-21T08:03:37.997Z,74.18
2022-08-21T08:04:37.981Z,75.78
2022-08-21T08:05:37.991Z,74.98
2022-08-21T08:06:37.939Z,74.98
2022-08-21T08:07:37.978Z,73.77
2022-08-21T08:08:38.001Z,73.17
2022-08-21T08:09:38.020Z,74.57
2022-08-21T08:10:38.128Z,74.57
2022-08-21T08:11:37.900Z,73.33
2022-08-21T08:12:38.132Z,74.34
2022-08-21T08:13:38.612Z,73.94
2022-08-21T08:14:37.892Z,75.24
2022-08-21T08:15:37.916Z,72.03
2022-08-21T08:16:37.929Z,73.74
2022-08-21T08:17:37.909Z,73.03
2022-08-21T08:18:37.869Z,73.03
2022-08-21T08:19:37.843Z,73.40
2022-08-21T08:20:37.816Z,72.70
2022-08-21T08:21:37.845Z,71.50
2022-08-21T08:22:37.779Z,70.09
2022-08-21T08:23:37.824Z,72.90
2022-08-21T08:24:37.825Z,71.39
2022-08-21T08:25:37.855Z,70.69
2022-08-21T08:26:37.806Z,72.40
2022-08-21T08:27:37.744Z,72.86
2022-08-21T08:28:37.758Z,69.66
2022-08-21T08:29:37.725Z,69.86
2022-08-21T08:30:37.714Z,70.36
2022-08-21T08:31:37.749Z,69.82
2022-08-21T08:32:37.840Z,70.32
2022-08-21T08:33:37.739Z,72.63
2022-08-21T08:34:37.713Z,71.93
2022-08-21T08:35:38.934Z,70.62
2022-08-21T08:36:37.643Z,68.73
2022-08-21T08:37:37.686Z,70.83
2022-08-21T08:38:37.660Z,70.39
2022-08-21T08:39:37.729Z,68.99
2022-08-21T08:40:37.654Z,71.00
2022-08-21T08:41:37.620Z,67.59
2022-08-21T08:42:37.572Z,69.19
2022-08-21T08:43:37.648Z,67.49
2022-08-21T08:44:37.581Z,70.19
2022-08-21T08:45:37.547Z,69.49
2022-08-21T08:46:37.538Z,69.06
2022-08-21T08:47:37.545Z,69.76
2022-08-21T08:48:37.537Z,67.55
2022-08-21T08:49:37.672Z,66.05
2022-08-21T08:50:37.579Z,66.63
2022-08-21T08:51:37.509Z,70.03
2022-08-21T08:52:37.537Z,69.32
2022-08-21T08:53:37.500Z,68.52
2022-08-21T08:54:37.623Z,69.23
2022-08-21T08:55:37.549Z,67.19
2022-08-21T08:56:37.623Z,65.09
2022-08-21T08:57:38.115Z,66.09
2022-08-21T08:58:37.515Z,63.89
2022-08-21T08:59:37.556Z,64.39
2022-08-21T09:00:37.445Z,66.29
2022-08-21T09:01:39.239Z,68.76
2022-08-21T09:02:37.393Z,64.86
2022-08-21T09:03:37.468Z,64.96
2022-08-21T09:04:37.445Z,64.06
2022-08-21T09:05:37.382Z,64.46
2022-08-21T09:06:37.483Z,66.73
2022-08-21T09:07:37.380Z,68.82
2022-08-21T09:08:37.369Z,68.13
2022-08-21T09:09:37.333Z,65.00
2022-08-21T09:10:37.341Z,62.60
2022-08-21T09:11:37.422Z,63.80
2022-08-21T09:12:37.300Z,66.30
2022-08-21T09:13:38.745Z,62.27
2022-08-21T09:14:37.425Z,60.58
2022-08-21T09:15:37.421Z,60.58
2022-08-21T09:16:37.458Z,63.97
2022-08-21T09:17:37.281Z,61.80
2022-08-21T09:18:37.240Z,62.10
2022-08-21T09:19:37.451Z,61.60
2022-08-21T09:20:37.475Z,63.50
2022-08-21T09:21:37.259Z,63.40
2022-08-21T09:22:37.209Z,63.90
2022-08-21T09:23:37.223Z,61.51
2022-08-21T09:24:37.236Z,63.80
2022-08-21T09:25:37.306Z,64.50
2022-08-21T09:26:37.182Z,62.50
2022-08-21T09:27:37.164Z,62.48
2022-08-21T09:28:37.180Z,64.57
2022-08-21T09:29:37.123Z,62.77
2022-08-21T09:30:37.147Z,64.87
2022-08-21T09:31:37.137Z,63.84
2022-08-21T09:32:38.190Z,61.65
2022-08-21T09:33:37.112Z,61.91
2022-08-21T09:34:37.080Z,61.52
2022-08-21T09:35:37.107Z,59.72
2022-08-21T09:36:37.079Z,65.11
2022-08-21T09:37:37.136Z,63.28
2022-08-21T09:38:37.267Z,61.49
2022-08-21T09:39:40.143Z,58.67
2022-08-21T09:40:37.520Z,59.83
2022-08-21T09:41:37.062Z,60.50
2022-08-21T09:42:37.128Z,61.69
2022-08-21T09:43:37.196Z,58.88
2022-08-21T09:44:37.200Z,58.18
2022-08-21T09:45:36.990Z,56.40
2022-08-21T09:46:37.352Z,55.60
2022-08-21T09:47:36.954Z,56.30
2022-08-21T09:48:37.263Z,56.00
2022-08-21T09:49:37.129Z,56.59
2022-08-21T09:50:36.927Z,60.97
2022-08-21T09:51:36.990Z,56.57
2022-08-21T09:52:36.962Z,57.36
2022-08-21T09:53:36.890Z,58.92
2022-08-21T09:54:36.886Z,55.74
2022-08-21T09:55:37.119Z,54.33
2022-08-21T09:56:36.895Z,55.32
2022-08-21T09:57:36.929Z,56.88
2022-08-21T09:58:36.940Z,55.87
2022-08-21T09:59:37.427Z,55.27
2022-08-21T10:00:37.042Z,55.57
2022-08-21T10:01:36.872Z,55.10
2022-08-21T10:02:36.988Z,57.28
2022-08-21T10:03:36.833Z,56.68
2022-08-21T10:04:36.830Z,55.36
2022-08-21T10:05:36.825Z,57.72
2022-08-21T10:06:36.995Z,55.19
2022-08-21T10:07:37.073Z,57.64
2022-08-21T10:08:36.774Z,50.98
2022-08-21T10:09:36.760Z,55.41
2022-08-21T10:10:36.742Z,51.23
2022-08-21T10:11:36.773Z,52.51
2022-08-21T10:12:36.908Z,50.31
2022-08-21T10:13:36.798Z,52.98
2022-08-21T10:14:36.949Z,50.51
2022-08-21T10:15:36.673Z,50.90
2022-08-21T10:16:36.696Z,51.92
2022-08-21T10:17:37.192Z,54.69
2022-08-21T10:18:36.658Z,50.66
2022-08-21T10:19:37.223Z,51.25
2022-08-21T10:20:36.668Z,55.51
2022-08-21T10:21:36.843Z,51.54
2022-08-21T10:22:36.616Z,54.61
2022-08-21T10:23:36.808Z,51.13
2022-08-21T10:24:36.605Z,50.90
2022-08-21T10:25:36.619Z,53.85
2022-08-21T10:26:36.736Z,47.40
2022-08-21T10:27:36.582Z,48.33
2022-08-21T10:28:36.745Z,48.83
2022-08-21T10:29:36.690Z,50.53
2022-08-21T10:30:36.664Z,50.51
2022-08-21T10:31:36.584Z,51.79
2022-08-21T10:32:36.743Z,53.57
2022-08-21T10:33:36.563Z,51.77
2022-08-21T10:34:36.528Z,51.75
2022-08-21T10:35:36.869Z,50.54
2022-08-21T10:36:36.507Z,47.75
2022-08-21T10:37:36.815Z,49.22
2022-08-21T10:38:52.731Z,49.10
2022-08-21T10:39:36.645Z,46.32
2022-08-21T10:40:36.491Z,47.48
2022-08-21T10:41:36.439Z,45.06
2022-08-21T10:42:36.510Z,50.07
2022-08-21T10:43:36.505Z,47.19
2022-08-21T10:44:36.385Z,44.92
2022-08-21T10:45:36.449Z,45.81
2022-08-21T10:46:36.448Z,46.99
2022-08-21T10:47:36.482Z,45.81
2022-08-21T10:48:36.448Z,45.63
2022-08-21T10:49:36.520Z,49.97
2022-08-21T10:50:36.381Z,47.70
2022-08-21T10:51:36.549Z,45.51
2022-08-21T10:52:36.469Z,44.62
2022-08-21T10:53:36.427Z,44.80
2022-08-21T10:54:36.420Z,47.16
2022-08-21T10:55:36.663Z,45.98
2022-08-21T10:56:36.296Z,46.55
2022-08-21T10:57:36.295Z,47.04
2022-08-21T10:58:36.272Z,47.12
2022-08-21T10:59:38.775Z,43.79
2022-08-21T11:00:36.348Z,43.91
2022-08-21T11:01:36.358Z,46.00
2022-08-21T11:02:36.357Z,44.72
2022-08-21T11:03:36.227Z,45.90
2022-08-21T11:04:49.280Z,46.59
2022-08-21T11:05:36.608Z,44.03
2022-08-21T11:06:36.360Z,47.90
2022-08-21T11:07:36.201Z,47.68
2022-08-21T11:08:36.181Z,46.37
2022-08-21T11:09:36.193Z,44.98
2022-08-21T11:10:36.272Z,49.58
2022-08-21T11:11:36.401Z,43.48
2022-08-21T11:12:36.219Z,43.28
2022-08-21T11:13:36.183Z,44.88
2022-08-21T11:14:36.275Z,45.68
2022-08-21T11:15:36.112Z,44.40
2022-08-21T11:16:36.100Z,46.37
2022-08-21T11:17:36.102Z,46.37
2022-08-21T11:18:36.286Z,45.09
2022-08-21T11:19:36.304Z,44.40
2022-08-21T11:20:36.395Z,44.92
2022-08-21T11:21:36.055Z,49.06
2022-08-21T11:22:36.326Z,45.14
2022-08-21T11:23:36.177Z,46.64
2022-08-21T11:24:36.121Z,46.25
2022-08-21T11:25:37.118Z,47.08
2022-08-21T11:26:36.079Z,47.47
2022-08-21T11:27:36.220Z,46.98
2022-08-21T11:28:36.039Z,47.10
2022-08-21T11:29:36.000Z,48.58
2022-08-21T11:30:36.218Z,46.11
2022-08-21T11:31:36.145Z,49.18
2022-08-21T11:32:36.058Z,47.55
2022-08-21T11:33:36.054Z,47.06
2022-08-21T11:34:35.985Z,45.57
2022-08-21T11:35:35.977Z,48.14
2022-08-21T11:36:36.161Z,46.26
2022-08-21T11:37:35.991Z,47.67
2022-08-21T11:38:35.950Z,48.46
2022-08-21T11:39:36.097Z,47.38
2022-08-21T11:40:35.906Z,47.28
2022-08-21T11:41:35.855Z,50.43
2022-08-21T11:42:36.045Z,50.68
2022-08-21T11:43:36.053Z,46.72
2022-08-21T11:44:35.886Z,47.38
2022-08-21T11:45:35.864Z,45.90
2022-08-21T11:46:35.889Z,45.61
2022-08-21T11:47:36.113Z,44.92
2022-08-21T11:48:35.881Z,45.71
2022-08-21T11:49:35.846Z,46.00
2022-08-21T11:50:36.531Z,47.06
2022-08-21T11:51:35.841Z,43.44
2022-08-21T11:52:35.954Z,45.41
2022-08-21T11:53:35.807Z,44.53
2022-08-21T11:54:35.876Z,43.84
2022-08-21T11:55:36.096Z,44.62
2022-08-21T11:56:35.778Z,47.28
2022-08-21T11:57:35.799Z,46.79
2022-08-21T11:58:35.734Z,44.33
2022-08-21T11:59:40.525Z,45.93
2022-08-21T12:00:35.797Z,43.56
2022-08-21T12:01:35.842Z,46.52
2022-08-21T12:02:35.734Z,45.53
2022-08-21T12:03:35.694Z,46.12
2022-08-21T12:04:35.730Z,45.83
2022-08-21T12:05:35.848Z,43.56
2022-08-21T12:06:35.845Z,44.35
2022-08-21T12:07:35.757Z,47.28
2022-08-21T12:08:35.648Z,45.41
2022-08-21T12:09:35.652Z,44.62
2022-08-21T12:10:35.687Z,45.02
2022-08-21T12:11:35.906Z,45.00
2022-08-21T12:12:35.634Z,43.52
2022-08-21T12:13:40.482Z,43.52
2022-08-21T12:14:35.721Z,41.25
2022-08-21T12:15:35.612Z,42.04
2022-08-21T12:16:35.595Z,43.62
2022-08-21T12:17:35.605Z,44.11
2022-08-21T12:18:35.602Z,44.40
2022-08-21T12:19:35.674Z,42.14
2022-08-21T12:20:35.634Z,44.80
2022-08-21T12:21:35.601Z,40.08
2022-08-21T12:22:35.559Z,41.65
2022-08-21T12:23:35.655Z,44.01
2022-08-21T12:24:35.595Z,40.76
2022-08-21T12:25:35.625Z,43.71
2022-08-21T12:26:35.512Z,44.51
2022-08-21T12:27:35.730Z,41.67
2022-08-21T12:28:35.556Z,44.15
2022-08-21T12:29:35.515Z,43.78
2022-08-21T12:30:35.517Z,44.37
2022-08-21T12:31:35.777Z,44.87
2022-08-21T12:32:35.479Z,46.17
2022-08-21T12:33:35.477Z,45.38
2022-08-21T12:34:35.426Z,45.36
2022-08-21T12:35:35.434Z,44.67
2022-08-21T12:36:38.696Z,46.25
2022-08-21T12:37:35.482Z,46.44
2022-08-21T12:38:35.440Z,46.84
2022-08-21T12:39:35.459Z,47.41
2022-08-21T12:40:35.593Z,44.72
2022-08-21T12:41:35.604Z,46.25
2022-08-21T12:42:35.376Z,45.38
2022-08-21T12:43:35.397Z,46.09
2022-08-21T12:44:35.455Z,44.95
2022-08-21T12:45:35.471Z,47.84
2022-08-21T12:46:35.722Z,47.84
2022-08-21T12:47:35.330Z,48.61
2022-08-21T12:48:35.476Z,46.51
2022-08-21T12:49:35.370Z,46.70
2022-08-21T12:50:35.314Z,47.69
2022-08-21T12:51:35.487Z,47.79
2022-08-21T12:52:39.116Z,47.60